sensor_id;sensor_type;location;lat;lon;timestamp;temperature;humidity
47310;DHT22;33046;52.270;6.832;2024-03-23T00:53:50;11.30;99.90
47310;DHT22;33046;52.270;6.832;2024-03-23T00:55:56;11.30;99.90
47310;DHT22;33046;52.270;6.832;2024-03-23T00:58:02;11.20;99.90
47310;DHT22;33046;52.270;6.832;2024-03-23T01:00:08;11.20;99.90
47310;DHT22;33046;52.270;6.832;2024-03-23T01:02:14;11.20;99.90
47310;DHT22;33046;52.270;6.832;2024-03-23T01:04:20;11.20;99.90
47310;DHT22;33046;52.270;6.832;2024-03-23T01:06:26;11.20;99.90
47310;DHT22;33046;52.270;6.832;2024-03-23T01:08:32;11.20;99.90
47310;DHT22;33046;52.270;6.832;2024-03-23T01:10:39;11.20;99.90
47310;DHT22;33046;52.270;6.832;2024-03-23T01:12:45;11.20;99.90
47310;DHT22;33046;52.270;6.832;2024-03-23T01:14:51;11.20;99.90
47310;DHT22;33046;52.270;6.832;2024-03-23T01:16:57;11.20;99.90
47310;DHT22;33046;52.270;6.832;2024-03-23T01:19:03;11.20;99.90
47310;DHT22;33046;52.270;6.832;2024-03-23T01:21:09;11.20;99.90
47310;DHT22;33046;52.270;6.832;2024-03-23T01:23:15;11.10;99.90
47310;DHT22;33046;52.270;6.832;2024-03-23T01:25:21;11.20;99.90
47310;DHT22;33046;52.270;6.832;2024-03-23T01:27:28;11.10;99.90
47310;DHT22;33046;52.270;6.832;2024-03-23T01:29:34;11.10;99.90
47310;DHT22;33046;52.270;6.832;2024-03-23T01:31:40;11.10;99.90
47310;DHT22;33046;52.270;6.832;2024-03-23T01:33:46;11.10;99.90
47310;DHT22;33046;52.270;6.832;2024-03-23T01:35:52;11.10;99.90
47310;DHT22;33046;52.270;6.832;2024-03-23T01:37:58;11.00;99.90
47310;DHT22;33046;52.270;6.832;2024-03-23T01:40:05;11.00;99.90
47310;DHT22;33046;52.270;6.832;2024-03-23T01:42:11;11.00;99.90
47310;DHT22;33046;52.270;6.832;2024-03-23T01:44:18;11.00;99.90
47310;DHT22;33046;52.270;6.832;2024-03-23T01:46:24;11.00;99.90
47310;DHT22;33046;52.270;6.832;2024-03-23T01:48:30;11.00;99.90
47310;DHT22;33046;52.270;6.832;2024-03-23T01:50:36;11.00;99.90
47310;DHT22;33046;52.270;6.832;2024-03-23T01:52:42;11.00;99.90
47310;DHT22;33046;52.270;6.832;2024-03-23T01:54:48;11.00;99.90
47310;DHT22;33046;52.270;6.832;2024-03-23T01:56:54;11.00;99.90
47310;DHT22;33046;52.270;6.832;2024-03-23T01:59:01;11.00;99.90
47310;DHT22;33046;52.270;6.832;2024-03-23T02:01:08;11.00;99.90
47310;DHT22;33046;52.270;6.832;2024-03-23T02:03:24;11.00;99.90
47310;DHT22;33046;52.270;6.832;2024-03-23T02:05:30;10.90;99.90
47310;DHT22;33046;52.270;6.832;2024-03-23T02:07:37;11.00;99.90
47310;DHT22;33046;52.270;6.832;2024-03-23T02:09:43;11.00;99.90
47310;DHT22;33046;52.270;6.832;2024-03-23T02:11:49;11.00;99.90
47310;DHT22;33046;52.270;6.832;2024-03-23T02:13:55;11.00;99.90
47310;DHT22;33046;52.270;6.832;2024-03-23T02:16:01;11.00;99.90
47310;DHT22;33046;52.270;6.832;2024-03-23T02:18:09;11.00;99.90
47310;DHT22;33046;52.270;6.832;2024-03-23T02:20:14;10.90;99.90
47310;DHT22;33046;52.270;6.832;2024-03-23T02:22:20;10.90;99.90
47310;DHT22;33046;52.270;6.832;2024-03-23T02:24:29;10.90;99.90
47310;DHT22;33046;52.270;6.832;2024-03-23T02:26:35;10.90;99.90
47310;DHT22;33046;52.270;6.832;2024-03-23T02:28:41;10.90;99.90
47310;DHT22;33046;52.270;6.832;2024-03-23T02:30:47;10.90;99.90
47310;DHT22;33046;52.270;6.832;2024-03-23T02:32:52;10.90;99.90
47310;DHT22;33046;52.270;6.832;2024-03-23T02:34:58;10.80;99.90
47310;DHT22;33046;52.270;6.832;2024-03-23T02:37:10;10.90;99.90
47310;DHT22;33046;52.270;6.832;2024-03-23T02:39:16;10.90;99.90
47310;DHT22;33046;52.270;6.832;2024-03-23T02:41:23;10.80;99.90
47310;DHT22;33046;52.270;6.832;2024-03-23T02:43:29;10.90;99.90
47310;DHT22;33046;52.270;6.832;2024-03-23T02:45:35;10.80;99.90
47310;DHT22;33046;52.270;6.832;2024-03-23T02:47:41;10.80;99.90
47310;DHT22;33046;52.270;6.832;2024-03-23T02:49:47;10.80;99.90
47310;DHT22;33046;52.270;6.832;2024-03-23T02:51:53;10.80;99.90
47310;DHT22;33046;52.270;6.832;2024-03-23T02:53:59;10.80;99.90
47310;DHT22;33046;52.270;6.832;2024-03-23T02:56:05;10.80;99.90
47310;DHT22;33046;52.270;6.832;2024-03-23T02:58:12;10.80;99.90
47310;DHT22;33046;52.270;6.832;2024-03-23T03:00:18;10.80;99.90
47310;DHT22;33046;52.270;6.832;2024-03-23T03:02:24;10.80;99.90
47310;DHT22;33046;52.270;6.832;2024-03-23T03:04:30;10.80;99.90
47310;DHT22;33046;52.270;6.832;2024-03-23T03:06:36;10.80;99.90
47310;DHT22;33046;52.270;6.832;2024-03-23T03:08:42;10.70;99.90
47310;DHT22;33046;52.270;6.832;2024-03-23T03:10:48;10.70;99.90
47310;DHT22;33046;52.270;6.832;2024-03-23T03:12:54;10.70;99.90
47310;DHT22;33046;52.270;6.832;2024-03-23T03:15:01;10.70;99.90
47310;DHT22;33046;52.270;6.832;2024-03-23T03:17:07;10.70;99.90
47310;DHT22;33046;52.270;6.832;2024-03-23T03:19:13;10.70;99.90
47310;DHT22;33046;52.270;6.832;2024-03-23T03:21:19;10.70;99.90
47310;DHT22;33046;52.270;6.832;2024-03-23T03:23:25;10.70;99.90
47310;DHT22;33046;52.270;6.832;2024-03-23T03:25:31;10.60;99.90
47310;DHT22;33046;52.270;6.832;2024-03-23T03:27:37;10.60;99.90
47310;DHT22;33046;52.270;6.832;2024-03-23T03:29:43;10.60;99.90
47310;DHT22;33046;52.270;6.832;2024-03-23T03:31:50;10.50;99.90
47310;DHT22;33046;52.270;6.832;2024-03-23T03:33:56;10.60;99.90
47310;DHT22;33046;52.270;6.832;2024-03-23T03:36:02;10.60;99.90
47310;DHT22;33046;52.270;6.832;2024-03-23T03:38:08;10.60;99.90
47310;DHT22;33046;52.270;6.832;2024-03-23T03:40:14;10.50;99.90
47310;DHT22;33046;52.270;6.832;2024-03-23T03:42:20;10.50;99.90
47310;DHT22;33046;52.270;6.832;2024-03-23T03:44:26;10.50;99.90
47310;DHT22;33046;52.270;6.832;2024-03-23T03:46:32;10.50;99.90
47310;DHT22;33046;52.270;6.832;2024-03-23T03:48:39;10.50;99.90
47310;DHT22;33046;52.270;6.832;2024-03-23T03:50:45;10.50;99.90
47310;DHT22;33046;52.270;6.832;2024-03-23T03:52:51;10.40;99.90
47310;DHT22;33046;52.270;6.832;2024-03-23T03:55:01;10.40;99.90
47310;DHT22;33046;52.270;6.832;2024-03-23T03:57:07;10.40;99.90
47310;DHT22;33046;52.270;6.832;2024-03-23T03:59:13;10.40;99.90
47310;DHT22;33046;52.270;6.832;2024-03-23T04:01:19;10.40;99.90
47310;DHT22;33046;52.270;6.832;2024-03-23T04:03:25;10.40;99.90
47310;DHT22;33046;52.270;6.832;2024-03-23T04:05:32;10.40;99.90
47310;DHT22;33046;52.270;6.832;2024-03-23T04:07:38;10.40;99.90
47310;DHT22;33046;52.270;6.832;2024-03-23T04:09:44;10.40;99.90
47310;DHT22;33046;52.270;6.832;2024-03-23T04:11:50;10.30;99.90
47310;DHT22;33046;52.270;6.832;2024-03-23T04:13:56;10.30;99.90
47310;DHT22;33046;52.270;6.832;2024-03-23T04:16:02;10.30;99.90
47310;DHT22;33046;52.270;6.832;2024-03-23T04:18:10;10.30;99.90
47310;DHT22;33046;52.270;6.832;2024-03-23T04:20:16;10.30;99.90
47310;DHT22;33046;52.270;6.832;2024-03-23T04:22:24;10.30;99.90
47310;DHT22;33046;52.270;6.832;2024-03-23T04:24:30;10.30;99.90
47310;DHT22;33046;52.270;6.832;2024-03-23T04:26:41;10.20;99.90
47310;DHT22;33046;52.270;6.832;2024-03-23T04:28:46;10.20;99.90
47310;DHT22;33046;52.270;6.832;2024-03-23T04:30:52;10.20;99.90
47310;DHT22;33046;52.270;6.832;2024-03-23T04:32:58;10.20;99.90
47310;DHT22;33046;52.270;6.832;2024-03-23T04:35:05;10.20;99.90
47310;DHT22;33046;52.270;6.832;2024-03-23T04:37:11;10.20;99.90
47310;DHT22;33046;52.270;6.832;2024-03-23T04:39:18;10.20;99.90
47310;DHT22;33046;52.270;6.832;2024-03-23T04:41:24;10.10;99.90
47310;DHT22;33046;52.270;6.832;2024-03-23T04:43:30;10.10;99.90
47310;DHT22;33046;52.270;6.832;2024-03-23T04:45:36;10.10;99.90
47310;DHT22;33046;52.270;6.832;2024-03-23T04:47:42;10.10;99.90
47310;DHT22;33046;52.270;6.832;2024-03-23T04:49:48;10.10;99.90
47310;DHT22;33046;52.270;6.832;2024-03-23T04:51:55;10.10;99.90
47310;DHT22;33046;52.270;6.832;2024-03-23T04:54:01;10.10;99.90
47310;DHT22;33046;52.270;6.832;2024-03-23T04:56:08;10.00;99.90
47310;DHT22;33046;52.270;6.832;2024-03-23T04:58:14;10.00;99.90
47310;DHT22;33046;52.270;6.832;2024-03-23T05:00:20;10.00;99.90
47310;DHT22;33046;52.270;6.832;2024-03-23T05:02:26;10.00;99.90
47310;DHT22;33046;52.270;6.832;2024-03-23T05:04:32;10.00;99.90
47310;DHT22;33046;52.270;6.832;2024-03-23T05:06:38;10.00;99.90
47310;DHT22;33046;52.270;6.832;2024-03-23T05:08:43;10.00;99.90
47310;DHT22;33046;52.270;6.832;2024-03-23T05:10:49;10.00;99.90
47310;DHT22;33046;52.270;6.832;2024-03-23T05:12:57;10.00;99.90
47310;DHT22;33046;52.270;6.832;2024-03-23T05:15:03;9.90;99.90
47310;DHT22;33046;52.270;6.832;2024-03-23T05:17:09;9.90;99.90
47310;DHT22;33046;52.270;6.832;2024-03-23T05:19:15;9.90;99.90
47310;DHT22;33046;52.270;6.832;2024-03-23T05:21:21;9.90;99.90
47310;DHT22;33046;52.270;6.832;2024-03-23T05:23:28;9.90;99.90
47310;DHT22;33046;52.270;6.832;2024-03-23T05:25:34;9.90;99.90
47310;DHT22;33046;52.270;6.832;2024-03-23T05:27:40;9.90;99.90
47310;DHT22;33046;52.270;6.832;2024-03-23T05:29:47;9.90;99.90
47310;DHT22;33046;52.270;6.832;2024-03-23T05:31:53;9.90;99.90
47310;DHT22;33046;52.270;6.832;2024-03-23T05:33:59;9.90;99.90
47310;DHT22;33046;52.270;6.832;2024-03-23T05:36:05;9.90;99.90
47310;DHT22;33046;52.270;6.832;2024-03-23T05:38:11;9.80;99.90
47310;DHT22;33046;52.270;6.832;2024-03-23T05:40:17;9.80;99.90
47310;DHT22;33046;52.270;6.832;2024-03-23T05:42:23;9.90;99.90
47310;DHT22;33046;52.270;6.832;2024-03-23T05:44:29;9.80;99.90
47310;DHT22;33046;52.270;6.832;2024-03-23T05:46:36;9.80;99.90
47310;DHT22;33046;52.270;6.832;2024-03-23T05:48:42;9.80;99.90
47310;DHT22;33046;52.270;6.832;2024-03-23T05:50:48;9.80;99.90
47310;DHT22;33046;52.270;6.832;2024-03-23T05:52:54;9.80;99.90
47310;DHT22;33046;52.270;6.832;2024-03-23T05:55:00;9.80;99.90
47310;DHT22;33046;52.270;6.832;2024-03-23T05:57:06;9.80;99.90
47310;DHT22;33046;52.270;6.832;2024-03-23T05:59:12;9.80;99.90
47310;DHT22;33046;52.270;6.832;2024-03-23T06:01:18;9.80;99.90
47310;DHT22;33046;52.270;6.832;2024-03-23T06:03:25;9.80;99.90
47310;DHT22;33046;52.270;6.832;2024-03-23T06:05:31;9.80;99.90
47310;DHT22;33046;52.270;6.832;2024-03-23T06:07:37;9.80;99.90
47310;DHT22;33046;52.270;6.832;2024-03-23T06:09:43;9.80;99.90
47310;DHT22;33046;52.270;6.832;2024-03-23T06:11:49;9.80;99.90
47310;DHT22;33046;52.270;6.832;2024-03-23T06:13:55;9.80;99.90
47310;DHT22;33046;52.270;6.832;2024-03-23T06:16:02;9.80;99.90
47310;DHT22;33046;52.270;6.832;2024-03-23T06:18:08;9.80;99.90
47310;DHT22;33046;52.270;6.832;2024-03-23T06:20:15;9.80;99.90
47310;DHT22;33046;52.270;6.832;2024-03-23T06:22:21;9.80;99.90
47310;DHT22;33046;52.270;6.832;2024-03-23T06:24:27;9.80;99.90
47310;DHT22;33046;52.270;6.832;2024-03-23T06:26:34;9.80;99.90
47310;DHT22;33046;52.270;6.832;2024-03-23T06:28:40;9.80;99.90
47310;DHT22;33046;52.270;6.832;2024-03-23T06:30:46;9.90;99.90
47310;DHT22;33046;52.270;6.832;2024-03-23T06:32:52;9.90;99.90
47310;DHT22;33046;52.270;6.832;2024-03-23T06:34:58;9.90;99.90
47310;DHT22;33046;52.270;6.832;2024-03-23T06:37:05;9.90;99.90
47310;DHT22;33046;52.270;6.832;2024-03-23T06:39:11;9.90;99.90
47310;DHT22;33046;52.270;6.832;2024-03-23T06:41:17;9.90;99.90
47310;DHT22;33046;52.270;6.832;2024-03-23T06:43:23;9.90;99.90
47310;DHT22;33046;52.270;6.832;2024-03-23T06:45:29;10.00;99.90
47310;DHT22;33046;52.270;6.832;2024-03-23T06:47:35;10.00;99.90
47310;DHT22;33046;52.270;6.832;2024-03-23T06:49:40;10.00;99.90
47310;DHT22;33046;52.270;6.832;2024-03-23T06:51:46;10.00;99.90
47310;DHT22;33046;52.270;6.832;2024-03-23T06:53:54;10.00;99.90
47310;DHT22;33046;52.270;6.832;2024-03-23T06:55:59;10.00;99.90
47310;DHT22;33046;52.270;6.832;2024-03-23T06:58:05;10.00;99.90
47310;DHT22;33046;52.270;6.832;2024-03-23T07:00:12;10.00;99.90
47310;DHT22;33046;52.270;6.832;2024-03-23T07:02:18;10.10;99.90
47310;DHT22;33046;52.270;6.832;2024-03-23T07:04:24;10.10;99.90
47310;DHT22;33046;52.270;6.832;2024-03-23T07:06:30;10.10;99.90
47310;DHT22;33046;52.270;6.832;2024-03-23T07:08:36;10.10;99.90
47310;DHT22;33046;52.270;6.832;2024-03-23T07:10:43;10.10;99.90
47310;DHT22;33046;52.270;6.832;2024-03-23T07:12:49;10.20;99.90
47310;DHT22;33046;52.270;6.832;2024-03-23T07:14:55;10.20;99.90
47310;DHT22;33046;52.270;6.832;2024-03-23T07:17:01;10.20;99.90
47310;DHT22;33046;52.270;6.832;2024-03-23T07:19:07;10.20;99.90
47310;DHT22;33046;52.270;6.832;2024-03-23T07:21:14;10.20;99.90
47310;DHT22;33046;52.270;6.832;2024-03-23T07:23:20;10.30;99.90
47310;DHT22;33046;52.270;6.832;2024-03-23T07:25:26;10.30;99.90
47310;DHT22;33046;52.270;6.832;2024-03-23T07:27:34;10.40;99.90
47310;DHT22;33046;52.270;6.832;2024-03-23T07:29:40;10.30;99.90
47310;DHT22;33046;52.270;6.832;2024-03-23T07:31:45;10.40;99.90
47310;DHT22;33046;52.270;6.832;2024-03-23T07:33:51;10.30;99.90
47310;DHT22;33046;52.270;6.832;2024-03-23T07:35:57;10.50;99.90
47310;DHT22;33046;52.270;6.832;2024-03-23T07:38:03;10.50;99.90
47310;DHT22;33046;52.270;6.832;2024-03-23T07:40:10;10.50;99.90
47310;DHT22;33046;52.270;6.832;2024-03-23T07:42:16;10.50;99.90
47310;DHT22;33046;52.270;6.832;2024-03-23T07:44:23;10.60;99.90
47310;DHT22;33046;52.270;6.832;2024-03-23T07:46:29;10.70;99.90
47310;DHT22;33046;52.270;6.832;2024-03-23T07:48:35;10.70;99.90
47310;DHT22;33046;52.270;6.832;2024-03-23T07:50:41;10.80;99.90
47310;DHT22;33046;52.270;6.832;2024-03-23T07:52:47;10.80;99.90
47310;DHT22;33046;52.270;6.832;2024-03-23T07:54:53;10.80;99.90
47310;DHT22;33046;52.270;6.832;2024-03-23T07:56:59;10.80;99.90
47310;DHT22;33046;52.270;6.832;2024-03-23T07:59:05;10.80;99.90
47310;DHT22;33046;52.270;6.832;2024-03-23T08:01:13;10.80;99.90
47310;DHT22;33046;52.270;6.832;2024-03-23T08:03:19;10.80;99.90
47310;DHT22;33046;52.270;6.832;2024-03-23T08:05:26;10.80;99.90
47310;DHT22;33046;52.270;6.832;2024-03-23T08:07:32;10.80;99.90
47310;DHT22;33046;52.270;6.832;2024-03-23T08:09:38;10.90;99.90
47310;DHT22;33046;52.270;6.832;2024-03-23T08:11:44;10.90;99.90
47310;DHT22;33046;52.270;6.832;2024-03-23T08:13:49;10.90;99.90
47310;DHT22;33046;52.270;6.832;2024-03-23T08:15:57;10.90;99.90
47310;DHT22;33046;52.270;6.832;2024-03-23T08:18:04;10.90;99.90
47310;DHT22;33046;52.270;6.832;2024-03-23T08:20:11;10.90;99.90
47310;DHT22;33046;52.270;6.832;2024-03-23T08:22:17;11.00;99.90
47310;DHT22;33046;52.270;6.832;2024-03-23T08:24:23;11.00;99.90
47310;DHT22;33046;52.270;6.832;2024-03-23T08:26:29;11.10;99.90
47310;DHT22;33046;52.270;6.832;2024-03-23T08:28:35;11.10;99.90
47310;DHT22;33046;52.270;6.832;2024-03-23T08:30:41;11.10;99.90
47310;DHT22;33046;52.270;6.832;2024-03-23T08:32:47;11.10;99.90
47310;DHT22;33046;52.270;6.832;2024-03-23T08:34:54;11.20;99.90
47310;DHT22;33046;52.270;6.832;2024-03-23T08:37:00;11.20;99.90
47310;DHT22;33046;52.270;6.832;2024-03-23T08:39:06;11.20;99.90
47310;DHT22;33046;52.270;6.832;2024-03-23T08:41:12;11.30;99.90
47310;DHT22;33046;52.270;6.832;2024-03-23T08:43:18;11.30;99.90
47310;DHT22;33046;52.270;6.832;2024-03-23T08:45:24;11.30;99.90
47310;DHT22;33046;52.270;6.832;2024-03-23T08:47:32;11.30;99.90
47310;DHT22;33046;52.270;6.832;2024-03-23T08:49:39;11.30;99.90
47310;DHT22;33046;52.270;6.832;2024-03-23T08:51:46;11.40;99.90
47310;DHT22;33046;52.270;6.832;2024-03-23T08:53:52;11.40;99.90
47310;DHT22;33046;52.270;6.832;2024-03-23T08:55:59;11.40;99.90
47310;DHT22;33046;52.270;6.832;2024-03-23T08:58:05;11.40;99.90
47310;DHT22;33046;52.270;6.832;2024-03-23T09:00:12;11.40;99.90
47310;DHT22;33046;52.270;6.832;2024-03-23T09:02:18;11.30;99.50
47310;DHT22;33046;52.270;6.832;2024-03-23T09:04:24;11.30;99.60
47310;DHT22;33046;52.270;6.832;2024-03-23T09:06:30;11.30;99.40
47310;DHT22;33046;52.270;6.832;2024-03-23T09:08:37;11.40;99.60
47310;DHT22;33046;52.270;6.832;2024-03-23T09:10:43;11.40;99.40
47310;DHT22;33046;52.270;6.832;2024-03-23T09:12:50;11.40;99.40
47310;DHT22;33046;52.270;6.832;2024-03-23T09:14:55;11.50;99.80
47310;DHT22;33046;52.270;6.832;2024-03-23T09:17:01;11.60;99.50
47310;DHT22;33046;52.270;6.832;2024-03-23T09:19:07;11.70;98.70
47310;DHT22;33046;52.270;6.832;2024-03-23T09:21:13;11.80;99.20
47310;DHT22;33046;52.270;6.832;2024-03-23T09:23:19;11.90;99.10
47310;DHT22;33046;52.270;6.832;2024-03-23T09:25:27;12.00;98.80
47310;DHT22;33046;52.270;6.832;2024-03-23T09:27:33;11.90;98.20
47310;DHT22;33046;52.270;6.832;2024-03-23T09:29:38;12.10;98.20
47310;DHT22;33046;52.270;6.832;2024-03-23T09:31:44;12.20;98.50
47310;DHT22;33046;52.270;6.832;2024-03-23T09:33:50;12.20;97.70
47310;DHT22;33046;52.270;6.832;2024-03-23T09:35:56;12.30;97.20
47310;DHT22;33046;52.270;6.832;2024-03-23T09:38:02;12.30;97.50
47310;DHT22;33046;52.270;6.832;2024-03-23T09:40:10;12.40;97.90
47310;DHT22;33046;52.270;6.832;2024-03-23T09:42:18;12.40;97.70
47310;DHT22;33046;52.270;6.832;2024-03-23T09:44:24;12.50;97.30
47310;DHT22;33046;52.270;6.832;2024-03-23T09:46:31;12.50;97.10
47310;DHT22;33046;52.270;6.832;2024-03-23T09:48:37;12.50;96.40
47310;DHT22;33046;52.270;6.832;2024-03-23T09:50:44;12.50;96.50
47310;DHT22;33046;52.270;6.832;2024-03-23T09:52:50;12.50;95.70
47310;DHT22;33046;52.270;6.832;2024-03-23T09:54:56;12.50;95.30
47310;DHT22;33046;52.270;6.832;2024-03-23T09:57:02;12.50;95.30
47310;DHT22;33046;52.270;6.832;2024-03-23T09:59:10;12.50;95.60
47310;DHT22;33046;52.270;6.832;2024-03-23T10:01:16;12.50;95.80
47310;DHT22;33046;52.270;6.832;2024-03-23T10:03:22;12.50;95.90
47310;DHT22;33046;52.270;6.832;2024-03-23T10:05:29;12.60;95.80
47310;DHT22;33046;52.270;6.832;2024-03-23T10:07:35;12.50;95.60
47310;DHT22;33046;52.270;6.832;2024-03-23T10:09:41;12.50;95.30
47310;DHT22;33046;52.270;6.832;2024-03-23T10:11:47;12.60;95.20
47310;DHT22;33046;52.270;6.832;2024-03-23T10:13:52;12.60;95.30
47310;DHT22;33046;52.270;6.832;2024-03-23T10:16:00;12.70;94.60
47310;DHT22;33046;52.270;6.832;2024-03-23T10:18:17;12.70;94.80
47310;DHT22;33046;52.270;6.832;2024-03-23T10:20:24;12.70;94.20
47310;DHT22;33046;52.270;6.832;2024-03-23T10:22:37;12.70;93.60
47310;DHT22;33046;52.270;6.832;2024-03-23T10:24:43;12.70;93.70
47310;DHT22;33046;52.270;6.832;2024-03-23T10:26:56;12.70;93.20
47310;DHT22;33046;52.270;6.832;2024-03-23T10:29:02;12.60;93.20
47310;DHT22;33046;52.270;6.832;2024-03-23T10:31:11;12.70;93.60
47310;DHT22;33046;52.270;6.832;2024-03-23T10:33:17;12.80;93.40
47310;DHT22;33046;52.270;6.832;2024-03-23T10:35:23;12.80;93.10
47310;DHT22;33046;52.270;6.832;2024-03-23T10:37:29;12.80;93.00
47310;DHT22;33046;52.270;6.832;2024-03-23T10:39:37;12.80;92.50
47310;DHT22;33046;52.270;6.832;2024-03-23T10:41:44;12.80;92.20
47310;DHT22;33046;52.270;6.832;2024-03-23T10:43:51;12.80;92.20
47310;DHT22;33046;52.270;6.832;2024-03-23T10:45:57;12.80;92.60
47310;DHT22;33046;52.270;6.832;2024-03-23T10:48:05;12.70;92.60
47310;DHT22;33046;52.270;6.832;2024-03-23T10:50:11;12.70;92.50
47310;DHT22;33046;52.270;6.832;2024-03-23T10:52:17;12.70;91.20
47310;DHT22;33046;52.270;6.832;2024-03-23T10:54:24;12.60;90.90
47310;DHT22;33046;52.270;6.832;2024-03-23T10:56:31;12.60;91.80
47310;DHT22;33046;52.270;6.832;2024-03-23T10:58:40;12.60;92.00
47310;DHT22;33046;52.270;6.832;2024-03-23T11:00:46;12.70;91.30
47310;DHT22;33046;52.270;6.832;2024-03-23T11:02:53;12.70;91.50
47310;DHT22;33046;52.270;6.832;2024-03-23T11:05:00;12.60;90.60
47310;DHT22;33046;52.270;6.832;2024-03-23T11:07:29;12.50;91.40
47310;DHT22;33046;52.270;6.832;2024-03-23T11:09:44;12.40;92.60
47310;DHT22;33046;52.270;6.832;2024-03-23T11:11:49;12.20;91.90
47310;DHT22;33046;52.270;6.832;2024-03-23T11:13:55;12.20;94.00
47310;DHT22;33046;52.270;6.832;2024-03-23T11:16:13;12.10;94.50
47310;DHT22;33046;52.270;6.832;2024-03-23T11:18:21;12.10;95.20
47310;DHT22;33046;52.270;6.832;2024-03-23T11:20:33;12.00;95.20
47310;DHT22;33046;52.270;6.832;2024-03-23T11:22:40;12.00;95.50
47310;DHT22;33046;52.270;6.832;2024-03-23T11:24:50;12.00;95.80
47310;DHT22;33046;52.270;6.832;2024-03-23T11:26:56;12.00;96.50
47310;DHT22;33046;52.270;6.832;2024-03-23T11:29:09;12.00;97.00
47310;DHT22;33046;52.270;6.832;2024-03-23T11:31:15;11.90;96.80
47310;DHT22;33046;52.270;6.832;2024-03-23T11:33:21;11.80;97.60
47310;DHT22;33046;52.270;6.832;2024-03-23T11:35:27;11.80;97.50
47310;DHT22;33046;52.270;6.832;2024-03-23T11:37:35;11.60;96.70
47310;DHT22;33046;52.270;6.832;2024-03-23T11:39:41;11.70;97.80
47310;DHT22;33046;52.270;6.832;2024-03-23T11:41:51;11.70;97.40
47310;DHT22;33046;52.270;6.832;2024-03-23T11:43:57;11.60;96.60
47310;DHT22;33046;52.270;6.832;2024-03-23T11:46:03;11.60;96.70
47310;DHT22;33046;52.270;6.832;2024-03-23T11:48:10;11.70;97.80
47310;DHT22;33046;52.270;6.832;2024-03-23T11:50:20;11.80;99.30
47310;DHT22;33046;52.270;6.832;2024-03-23T11:52:26;11.80;98.50
47310;DHT22;33046;52.270;6.832;2024-03-23T11:54:33;11.80;97.80
47310;DHT22;33046;52.270;6.832;2024-03-23T11:56:39;11.80;98.50
47310;DHT22;33046;52.270;6.832;2024-03-23T11:58:45;11.90;97.60
47310;DHT22;33046;52.270;6.832;2024-03-23T12:00:52;11.80;96.30
47310;DHT22;33046;52.270;6.832;2024-03-23T12:03:00;11.90;97.00
47310;DHT22;33046;52.270;6.832;2024-03-23T12:05:14;11.90;98.00
47310;DHT22;33046;52.270;6.832;2024-03-23T12:07:20;12.00;98.40
47310;DHT22;33046;52.270;6.832;2024-03-23T12:09:26;12.00;97.90
47310;DHT22;33046;52.270;6.832;2024-03-23T12:11:34;12.00;97.50
47310;DHT22;33046;52.270;6.832;2024-03-23T12:13:40;12.10;97.60
47310;DHT22;33046;52.270;6.832;2024-03-23T12:15:47;12.00;96.80
47310;DHT22;33046;52.270;6.832;2024-03-23T12:18:06;12.00;97.00
47310;DHT22;33046;52.270;6.832;2024-03-23T12:20:12;12.10;96.30
47310;DHT22;33046;52.270;6.832;2024-03-23T12:22:20;12.10;96.30
47310;DHT22;33046;52.270;6.832;2024-03-23T12:24:26;12.10;96.80
47310;DHT22;33046;52.270;6.832;2024-03-23T12:26:34;12.20;96.10
47310;DHT22;33046;52.270;6.832;2024-03-23T12:28:40;12.30;97.10
47310;DHT22;33046;52.270;6.832;2024-03-23T12:30:46;12.40;95.50
47310;DHT22;33046;52.270;6.832;2024-03-23T12:32:51;12.40;96.60
47310;DHT22;33046;52.270;6.832;2024-03-23T12:34:57;12.50;96.80
47310;DHT22;33046;52.270;6.832;2024-03-23T12:37:04;12.60;95.30
47310;DHT22;33046;52.270;6.832;2024-03-23T12:39:10;12.70;94.30
47310;DHT22;33046;52.270;6.832;2024-03-23T12:41:15;12.70;94.60
47310;DHT22;33046;52.270;6.832;2024-03-23T12:43:23;12.80;94.50
47310;DHT22;33046;52.270;6.832;2024-03-23T12:45:29;12.70;94.60
47310;DHT22;33046;52.270;6.832;2024-03-23T12:47:35;12.60;94.90
47310;DHT22;33046;52.270;6.832;2024-03-23T12:49:40;12.60;94.50
47310;DHT22;33046;52.270;6.832;2024-03-23T12:51:54;12.50;95.30
47310;DHT22;33046;52.270;6.832;2024-03-23T12:53:59;12.40;94.70
47310;DHT22;33046;52.270;6.832;2024-03-23T12:56:06;12.20;94.50
47310;DHT22;33046;52.270;6.832;2024-03-23T12:58:12;12.00;94.10
47310;DHT22;33046;52.270;6.832;2024-03-23T13:00:19;11.90;94.90
47310;DHT22;33046;52.270;6.832;2024-03-23T13:02:26;11.80;95.70
47310;DHT22;33046;52.270;6.832;2024-03-23T13:04:32;11.80;95.90
47310;DHT22;33046;52.270;6.832;2024-03-23T13:06:38;11.90;96.20
47310;DHT22;33046;52.270;6.832;2024-03-23T13:08:44;11.90;96.60
47310;DHT22;33046;52.270;6.832;2024-03-23T13:10:51;11.80;96.80
47310;DHT22;33046;52.270;6.832;2024-03-23T13:12:57;11.80;97.60
47310;DHT22;33046;52.270;6.832;2024-03-23T13:15:05;11.90;97.40
47310;DHT22;33046;52.270;6.832;2024-03-23T13:17:12;11.90;98.00
47310;DHT22;33046;52.270;6.832;2024-03-23T13:19:18;11.90;98.10
47310;DHT22;33046;52.270;6.832;2024-03-23T13:21:26;11.90;97.50
47310;DHT22;33046;52.270;6.832;2024-03-23T13:23:32;12.00;98.10
47310;DHT22;33046;52.270;6.832;2024-03-23T13:25:38;11.90;97.80
47310;DHT22;33046;52.270;6.832;2024-03-23T13:27:44;11.90;97.60
47310;DHT22;33046;52.270;6.832;2024-03-23T13:29:50;11.80;97.50
47310;DHT22;33046;52.270;6.832;2024-03-23T13:31:56;11.80;97.00
47310;DHT22;33046;52.270;6.832;2024-03-23T13:34:03;11.80;96.90
47310;DHT22;33046;52.270;6.832;2024-03-23T13:36:09;11.70;96.10
47310;DHT22;33046;52.270;6.832;2024-03-23T13:38:15;11.70;96.10
47310;DHT22;33046;52.270;6.832;2024-03-23T13:40:21;11.70;94.90
47310;DHT22;33046;52.270;6.832;2024-03-23T13:42:27;11.70;96.10
47310;DHT22;33046;52.270;6.832;2024-03-23T13:44:33;11.80;94.90
47310;DHT22;33046;52.270;6.832;2024-03-23T13:46:39;11.80;94.30
47310;DHT22;33046;52.270;6.832;2024-03-23T13:48:45;11.80;94.80
47310;DHT22;33046;52.270;6.832;2024-03-23T13:51:01;11.70;94.10
47310;DHT22;33046;52.270;6.832;2024-03-23T13:53:08;11.70;92.40
47310;DHT22;33046;52.270;6.832;2024-03-23T13:55:14;11.70;93.60
47310;DHT22;33046;52.270;6.832;2024-03-23T13:57:19;11.70;93.30
47310;DHT22;33046;52.270;6.832;2024-03-23T13:59:25;11.70;93.00
47310;DHT22;33046;52.270;6.832;2024-03-23T14:01:31;11.60;92.40
47310;DHT22;33046;52.270;6.832;2024-03-23T14:03:37;11.70;92.90
47310;DHT22;33046;52.270;6.832;2024-03-23T14:05:43;11.60;93.20
47310;DHT22;33046;52.270;6.832;2024-03-23T14:07:51;11.60;92.40
47310;DHT22;33046;52.270;6.832;2024-03-23T14:09:56;11.70;93.00
47310;DHT22;33046;52.270;6.832;2024-03-23T14:12:08;11.70;92.70
47310;DHT22;33046;52.270;6.832;2024-03-23T14:14:14;11.70;91.90